Time;durP1;ratioP1;P1;durP2;ratioP2;P2;SDS_P1;SDS_P2;PMS_P1;PMS_P2;Temp;Humidity;BMP_temperature;BMP_pressure;BME280_temperature;BME280_humidity;BME280_pressure;Samples;Min_cycle;Max_cycle;Signal;HPM_P1;HPM_P2
2021/01/12 00:02:12;;;;;;;0.82;0.82;;;-6.40;99.90;;;;;;5027991;28;20182;-76
2021/01/12 00:04:38;;;;;;;0.30;0.30;;;-6.30;99.90;;;;;;5028956;28;20201;-76
2021/01/12 00:07:04;;;;;;;1.65;1.65;;;-6.50;99.90;;;;;;5028884;28;20204;-76
2021/01/12 00:09:31;;;;;;;0.20;0.20;;;-6.50;99.90;;;;;;5027586;28;20166;-77
2021/01/12 00:11:57;;;;;;;1.95;1.85;;;-6.80;99.90;;;;;;5027453;28;20182;-77
2021/01/12 00:14:32;;;;;;;0.88;0.88;;;-6.70;99.90;;;;;;5027554;28;20184;-77
2021/01/12 00:17:02;;;;;;;2.85;2.63;;;-6.90;99.90;;;;;;5027463;28;20208;-77
2021/01/12 00:19:28;;;;;;;2.83;2.70;;;-6.90;99.90;;;;;;5027515;28;20162;-77
2021/01/12 00:21:54;;;;;;;0.70;0.70;;;-6.80;99.90;;;;;;5027449;28;20197;-76
2021/01/12 00:24:21;;;;;;;1.85;1.75;;;-6.70;99.90;;;;;;5026051;28;20246;-77
2021/01/12 00:26:47;;;;;;;1.92;1.70;;;-6.80;99.90;;;;;;5025905;28;20351;-77
2021/01/12 00:29:13;;;;;;;3.10;2.90;;;-6.70;99.90;;;;;;5025982;28;20185;-76
2021/01/12 00:31:43;;;;;;;5.05;4.65;;;-6.60;99.90;;;;;;5027256;28;20186;-76
2021/01/12 00:34:10;;;;;;;1.50;1.50;;;-6.40;99.90;;;;;;5027441;28;20158;-77
2021/01/12 00:36:51;;;;;;;0.88;0.88;;;-6.50;99.90;;;;;;5025933;28;20537;-76
2021/01/12 00:39:18;;;;;;;0.73;0.73;;;-6.60;99.90;;;;;;5025804;28;20185;-77
2021/01/12 00:41:53;;;;;;;0.70;0.70;;;-6.70;99.90;;;;;;5027107;28;20315;-76
2021/01/12 00:44:20;;;;;;;4.65;2.10;;;-6.70;99.90;;;;;;5027258;28;20617;-76
2021/01/12 00:46:47;;;;;;;9.85;8.52;;;-6.70;99.90;;;;;;5027144;28;20198;-77
2021/01/12 00:49:15;;;;;;;0.40;0.40;;;-6.50;99.90;;;;;;5025807;28;20613;-77
2021/01/12 00:51:41;;;;;;;1.33;1.33;;;-6.50;99.90;;;;;;5029755;28;20194;-77
2021/01/12 00:54:09;;;;;;;0.22;0.22;;;-6.60;99.90;;;;;;5029661;28;20190;-77
2021/01/12 00:56:35;;;;;;;0.22;0.22;;;-6.60;99.90;;;;;;5031161;28;20193;-76
2021/01/12 00:59:01;;;;;;;1.88;1.80;;;-6.60;99.90;;;;;;5030828;28;20173;-76
2021/01/12 01:01:27;;;;;;;1.30;1.25;;;-6.60;99.90;;;;;;5029514;28;20241;-76
2021/01/12 01:03:53;;;;;;;3.35;3.15;;;-6.60;99.90;;;;;;5030739;28;20186;-76
2021/01/12 01:06:20;;;;;;;1.92;1.83;;;-6.70;99.90;;;;;;5030754;28;20296;-75
2021/01/12 01:08:46;;;;;;;0.32;0.32;;;-6.60;99.90;;;;;;5029312;28;20178;-77
2021/01/12 01:11:12;;;;;;;0.55;0.55;;;-6.60;99.90;;;;;;5030556;28;20186;-77
2021/01/12 01:13:38;;;;;;;1.15;1.15;;;-6.70;99.90;;;;;;5030681;28;20172;-76
2021/01/12 01:16:04;;;;;;;2.38;2.20;;;-6.70;99.90;;;;;;5030403;28;20217;-77
2021/01/12 01:18:30;;;;;;;0.25;0.25;;;-6.80;99.90;;;;;;5030698;28;20154;-77
2021/01/12 01:20:56;;;;;;;0.95;0.95;;;-6.70;99.90;;;;;;5029050;28;20212;-76
2021/01/12 01:23:21;;;;;;;0.30;0.30;;;-6.80;99.90;;;;;;5030465;28;20159;-77
2021/01/12 01:25:47;;;;;;;0.65;0.65;;;-6.90;99.90;;;;;;5030431;28;20614;-75
2021/01/12 01:28:13;;;;;;;0.20;0.20;;;-6.90;99.90;;;;;;5028898;28;20189;-77
2021/01/12 01:30:38;;;;;;;1.30;1.30;;;-7.00;99.90;;;;;;5030391;28;20326;-76
2021/01/12 01:33:04;;;;;;;2.38;2.28;;;-7.00;99.90;;;;;;5030451;28;20163;-76
2021/01/12 01:35:30;;;;;;;0.73;0.73;;;-7.10;99.90;;;;;;5030465;28;20167;-77
2021/01/12 01:38:00;;;;;;;0.38;0.38;;;-7.20;99.90;;;;;;5030287;28;20186;-77
2021/01/12 01:40:26;;;;;;;3.20;3.00;;;-7.10;99.90;;;;;;5030089;28;20158;-77
2021/01/12 01:42:52;;;;;;;0.98;0.93;;;-7.30;99.90;;;;;;5029911;28;20653;-77
2021/01/12 01:45:18;;;;;;;1.20;1.20;;;-7.20;99.90;;;;;;5028599;28;20265;-76
2021/01/12 01:47:45;;;;;;;0.90;0.90;;;-7.00;99.90;;;;;;5028607;28;20194;-76
2021/01/12 01:50:16;;;;;;;0.30;0.30;;;-6.90;99.90;;;;;;5029944;28;20254;-77
2021/01/12 01:52:53;;;;;;;0.43;0.43;;;-7.20;99.90;;;;;;5029890;28;20193;-76
2021/01/12 01:55:20;;;;;;;0.40;0.40;;;-7.40;99.90;;;;;;5028384;28;20169;-77
2021/01/12 01:57:47;;;;;;;0.90;0.90;;;-7.60;99.90;;;;;;5028272;28;20211;-76
2021/01/12 02:00:17;;;;;;;1.65;1.60;;;-7.80;99.90;;;;;;5028353;28;20212;-76
2021/01/12 02:02:48;;;;;;;0.30;0.30;;;-8.00;99.90;;;;;;5027281;28;20185;-77
2021/01/12 02:05:14;;;;;;;0.52;0.52;;;-7.90;99.90;;;;;;5029687;28;20197;-77
2021/01/12 02:07:44;;;;;;;0.90;0.90;;;-7.80;99.90;;;;;;5029485;28;20197;-76
2021/01/12 02:10:18;;;;;;;2.35;2.22;;;-7.90;99.90;;;;;;5029682;28;20169;-76
2021/01/12 02:12:58;;;;;;;0.68;0.68;;;-7.80;99.90;;;;;;5029524;28;20250;-76
2021/01/12 02:15:25;;;;;;;0.45;0.45;;;-7.70;99.90;;;;;;5029470;28;20168;-76
2021/01/12 02:17:52;;;;;;;0.93;0.93;;;-7.60;99.90;;;;;;5027847;28;20213;-77
2021/01/12 02:20:21;;;;;;;0.20;0.20;;;-7.50;99.90;;;;;;5029443;28;20206;-77
2021/01/12 02:23:05;;;;;;;1.20;1.20;;;-7.40;99.90;;;;;;5029246;28;20483;-76
2021/01/12 02:25:34;;;;;;;0.60;0.60;;;-7.30;99.90;;;;;;5029524;28;20155;-77
2021/01/12 02:28:02;;;;;;;0.68;0.68;;;-7.30;99.90;;;;;;5029324;28;20198;-76
2021/01/12 02:30:27;;;;;;;1.10;1.10;;;-7.30;99.90;;;;;;5029262;28;20174;-76
2021/01/12 02:32:54;;;;;;;1.67;1.58;;;-7.20;99.90;;;;;;5030407;28;20235;-77
2021/01/12 02:35:23;;;;;;;0.65;0.65;;;-7.20;99.90;;;;;;5029448;28;20154;-77
2021/01/12 02:37:49;;;;;;;0.30;0.30;;;-7.10;99.90;;;;;;5029334;28;20186;-76
2021/01/12 02:40:15;;;;;;;0.30;0.30;;;-7.10;99.90;;;;;;5028016;28;20225;-77
2021/01/12 02:42:44;;;;;;;0.40;0.40;;;-7.00;99.90;;;;;;5027835;28;20226;-76
2021/01/12 02:45:12;;;;;;;1.10;1.10;;;-6.90;99.90;;;;;;5028949;28;20257;-76
2021/01/12 02:47:38;;;;;;;0.85;0.77;;;-6.90;99.90;;;;;;5027341;28;20194;-76
2021/01/12 02:50:11;;;;;;;0.20;0.20;;;-7.00;99.90;;;;;;5027436;28;20240;-76
2021/01/12 02:52:41;;;;;;;0.20;0.20;;;-7.00;99.90;;;;;;5027332;28;20228;-76
2021/01/12 02:55:09;;;;;;;0.65;0.65;;;-7.00;99.90;;;;;;5027295;28;20162;-75
2021/01/12 02:57:35;;;;;;;2.15;1.95;;;-7.30;99.90;;;;;;5028593;28;20194;-77
2021/01/12 03:00:06;;;;;;;0.20;0.20;;;-7.60;99.90;;;;;;5028680;28;20158;-76
2021/01/12 03:02:31;;;;;;;0.57;0.57;;;-7.60;99.90;;;;;;5028599;28;20185;-76
2021/01/12 03:04:57;;;;;;;0.60;0.60;;;-7.50;99.90;;;;;;5027147;28;20178;-77
2021/01/12 03:07:23;;;;;;;0.35;0.35;;;-7.70;99.90;;;;;;5028426;28;20232;-76
2021/01/12 03:09:49;;;;;;;0.68;0.68;;;-7.80;99.90;;;;;;5027068;28;20170;-76
2021/01/12 03:12:15;;;;;;;0.30;0.30;;;-7.90;99.90;;;;;;5028224;28;20222;-76
2021/01/12 03:14:44;;;;;;;0.15;0.15;;;-7.60;99.90;;;;;;5026704;28;20653;-76
2021/01/12 03:17:11;;;;;;;1.05;1.05;;;-7.60;99.90;;;;;;5026920;28;20217;-77
2021/01/12 03:19:37;;;;;;;0.57;0.57;;;-7.50;99.90;;;;;;5026967;28;20281;-75
2021/01/12 03:22:04;;;;;;;1.73;1.55;;;-7.60;99.90;;;;;;5028225;28;20162;-76
2021/01/12 03:24:30;;;;;;;2.75;2.65;;;-7.80;99.90;;;;;;5026799;28;20166;-75
2021/01/12 03:26:56;;;;;;;0.40;0.40;;;-8.00;99.90;;;;;;5028193;28;20186;-75
2021/01/12 03:29:22;;;;;;;0.30;0.30;;;-8.10;99.90;;;;;;5028253;28;20173;-76
2021/01/12 03:31:48;;;;;;;0.30;0.30;;;-8.10;99.90;;;;;;5027964;28;20197;-75
2021/01/12 03:34:14;;;;;;;0.30;0.30;;;-8.20;99.90;;;;;;5028135;28;20166;-75
2021/01/12 03:36:40;;;;;;;0.20;0.20;;;-8.10;99.90;;;;;;5027969;28;20198;-76
2021/01/12 03:39:06;;;;;;;0.25;0.25;;;-8.10;99.90;;;;;;5027990;28;20169;-75
2021/01/12 03:41:32;;;;;;;0.20;0.20;;;-8.20;99.90;;;;;;5026116;28;20233;-75
2021/01/12 03:44:01;;;;;;;1.77;1.67;;;-8.10;99.90;;;;;;5026460;28;20205;-75
2021/01/12 03:46:28;;;;;;;1.38;1.27;;;-8.00;99.90;;;;;;5027835;28;20299;-79
2021/01/12 03:48:55;;;;;;;0.45;0.45;;;-7.70;99.90;;;;;;5027878;28;20165;-76
2021/01/12 03:51:23;;;;;;;0.30;0.30;;;-7.60;99.90;;;;;;5027236;28;20244;-75
2021/01/12 03:53:48;;;;;;;0.52;0.52;;;-7.40;99.90;;;;;;5025643;28;20191;-76
2021/01/12 03:56:14;;;;;;;0.20;0.20;;;-7.40;99.90;;;;;;5026120;28;20205;-76
2021/01/12 03:58:41;;;;;;;0.30;0.30;;;-7.30;99.90;;;;;;5026397;28;20300;-76
2021/01/12 04:01:07;;;;;;;0.45;0.45;;;-7.30;99.90;;;;;;5026600;28;20170;-77
2021/01/12 04:03:33;;;;;;;0.20;0.20;;;-7.40;99.90;;;;;;5027696;28;20181;-76
2021/01/12 04:06:09;;;;;;;0.60;0.60;;;-7.30;99.90;;;;;;5027519;28;20226;-75
2021/01/12 04:08:35;;;;;;;2.25;2.05;;;-7.30;99.90;;;;;;5027053;28;20154;-76
2021/01/12 04:11:02;;;;;;;5.00;4.68;;;-7.20;99.90;;;;;;5025482;28;20244;-76
2021/01/12 04:13:28;;;;;;;0.60;0.60;;;-7.40;99.90;;;;;;5027048;28;20188;-75
2021/01/12 04:15:54;;;;;;;4.50;3.20;;;-7.50;99.90;;;;;;5027053;28;20158;-75
2021/01/12 04:18:19;;;;;;;0.63;0.63;;;-7.70;99.90;;;;;;5026911;28;20218;-76
2021/01/12 04:20:45;;;;;;;0.40;0.40;;;-7.90;99.90;;;;;;5026592;28;20170;-75
2021/01/12 04:23:11;;;;;;;2.25;1.55;;;-7.90;99.90;;;;;;5025797;28;20174;-75
2021/01/12 04:25:39;;;;;;;0.20;0.20;;;-7.70;99.90;;;;;;5028175;28;20185;-77
2021/01/12 04:28:05;;;;;;;2.13;1.52;;;-7.90;99.90;;;;;;5029662;28;20201;-75
2021/01/12 04:30:31;;;;;;;0.63;0.63;;;-8.10;99.90;;;;;;5030983;28;20204;-77
2021/01/12 04:32:57;;;;;;;0.55;0.55;;;-8.00;99.90;;;;;;5029738;28;20261;-77
2021/01/12 04:35:23;;;;;;;2.55;2.45;;;-7.80;99.90;;;;;;5031018;28;20158;-76
2021/01/12 04:37:49;;;;;;;4.57;4.22;;;-7.60;99.90;;;;;;5029412;28;20193;-77
2021/01/12 04:40:15;;;;;;;0.30;0.30;;;-7.60;99.90;;;;;;5029382;28;20162;-77
2021/01/12 04:42:42;;;;;;;0.30;0.30;;;-7.60;99.90;;;;;;5030765;28;20233;-74
2021/01/12 04:45:09;;;;;;;0.45;0.45;;;-7.50;99.90;;;;;;5030869;28;20315;-75
2021/01/12 04:47:34;;;;;;;0.30;0.30;;;-7.50;99.90;;;;;;5030727;28;20235;-76
2021/01/12 04:50:05;;;;;;;0.30;0.30;;;-7.60;99.90;;;;;;5030548;28;20189;-76
2021/01/12 04:52:43;;;;;;;0.30;0.30;;;-7.70;99.90;;;;;;5030578;28;20190;-76
2021/01/12 04:55:09;;;;;;;2.63;2.45;;;-7.60;99.90;;;;;;5028909;28;20244;-75
2021/01/12 04:57:35;;;;;;;0.40;0.40;;;-7.60;99.90;;;;;;5029808;28;20200;-76
2021/01/12 05:00:00;;;;;;;0.45;0.45;;;-7.50;99.90;;;;;;5031750;28;20209;-75
2021/01/12 05:02:27;;;;;;;0.45;0.45;;;-7.50;99.90;;;;;;5031696;28;20197;-75
2021/01/12 05:04:55;;;;;;;0.40;0.40;;;-7.50;99.90;;;;;;5029250;28;20206;-76
2021/01/12 05:07:21;;;;;;;0.30;0.30;;;-7.70;99.90;;;;;;5029952;28;20209;-76
2021/01/12 05:09:47;;;;;;;1.00;1.00;;;-7.60;99.90;;;;;;5030189;28;20169;-74
2021/01/12 05:12:14;;;;;;;0.75;0.75;;;-7.60;99.90;;;;;;5030099;28;20242;-76
2021/01/12 05:14:41;;;;;;;0.40;0.40;;;-7.50;99.90;;;;;;5029979;28;20158;-78
2021/01/12 05:17:08;;;;;;;0.38;0.38;;;-7.50;99.90;;;;;;5029645;28;20182;-75
2021/01/12 05:19:39;;;;;;;0.63;0.63;;;-7.40;99.90;;;;;;5028231;28;20177;-75
2021/01/12 05:22:06;;;;;;;0.20;0.20;;;-7.50;99.90;;;;;;5029776;28;20154;-75
2021/01/12 05:24:42;;;;;;;0.85;0.85;;;-7.60;99.90;;;;;;5029827;28;20189;-76
2021/01/12 05:27:10;;;;;;;0.22;0.22;;;-7.70;99.90;;;;;;5029378;28;20293;-75
2021/01/12 05:29:38;;;;;;;0.30;0.30;;;-7.80;99.90;;;;;;5028424;28;20312;-76
2021/01/12 05:32:11;;;;;;;0.20;0.20;;;-7.70;99.90;;;;;;5029512;28;20190;-76
2021/01/12 05:34:38;;;;;;;0.60;0.60;;;-7.60;99.90;;;;;;5029697;28;20237;-76
2021/01/12 05:37:09;;;;;;;2.83;2.70;;;-7.60;99.90;;;;;;5029131;28;20214;-76
2021/01/12 05:39:39;;;;;;;3.40;3.20;;;-7.60;99.90;;;;;;5029463;28;20163;-76
2021/01/12 05:42:10;;;;;;;1.20;1.20;;;-7.50;99.90;;;;;;5027703;28;20229;-75
2021/01/12 05:44:40;;;;;;;0.52;0.52;;;-7.50;99.90;;;;;;5029273;28;20585;-75
2021/01/12 05:47:07;;;;;;;1.95;1.95;;;-7.50;99.90;;;;;;5029214;28;20201;-75
2021/01/12 05:49:33;;;;;;;0.30;0.30;;;-7.60;99.90;;;;;;5027729;28;20174;-75
2021/01/12 05:51:59;;;;;;;1.85;1.75;;;-7.60;99.90;;;;;;5027556;28;20206;-75
2021/01/12 05:54:36;;;;;;;0.95;0.95;;;-7.70;99.90;;;;;;5029142;28;20522;-75
2021/01/12 05:57:04;;;;;;;2.45;2.35;;;-7.70;99.90;;;;;;5027438;28;20252;-75
2021/01/12 05:59:35;;;;;;;0.73;0.73;;;-7.60;99.90;;;;;;5027920;28;20166;-75
2021/01/12 06:02:09;;;;;;;0.20;0.20;;;-7.70;99.90;;;;;;5029237;28;20220;-75
2021/01/12 06:04:36;;;;;;;1.08;1.08;;;-7.70;99.90;;;;;;5029064;28;20615;-75
2021/01/12 06:07:03;;;;;;;0.40;0.40;;;-7.70;99.90;;;;;;5027837;28;20265;-75
2021/01/12 06:09:29;;;;;;;3.25;2.20;;;-7.70;99.90;;;;;;5029241;28;20172;-75
2021/01/12 06:11:57;;;;;;;0.40;0.40;;;-7.80;99.90;;;;;;5027157;28;20292;-75
2021/01/12 06:14:24;;;;;;;0.57;0.57;;;-7.70;99.90;;;;;;5027723;28;20170;-75
2021/01/12 06:16:51;;;;;;;0.40;0.40;;;-7.70;99.90;;;;;;5027772;28;20301;-75
2021/01/12 06:19:21;;;;;;;0.30;0.30;;;-7.60;99.90;;;;;;5028883;28;20158;-76
2021/01/12 06:22:13;;;;;;;0.30;0.30;;;-7.60;99.90;;;;;;5028513;28;20192;-76
2021/01/12 06:24:44;;;;;;;0.30;0.30;;;-7.70;99.90;;;;;;5028666;28;20599;-75
2021/01/12 06:27:24;;;;;;;0.20;0.20;;;-7.70;99.90;;;;;;5028600;28;20193;-76
2021/01/12 06:29:51;;;;;;;0.28;0.28;;;-7.70;99.90;;;;;;5028243;28;20166;-75
2021/01/12 06:32:22;;;;;;;0.57;0.57;;;-7.50;99.90;;;;;;5028408;28;20194;-76
2021/01/12 06:34:54;;;;;;;2.47;2.30;;;-7.50;99.90;;;;;;5026953;28;20730;-76
2021/01/12 06:37:22;;;;;;;0.40;0.40;;;-7.40;99.90;;;;;;5028505;28;20319;-75
2021/01/12 06:39:51;;;;;;;0.52;0.52;;;-7.40;99.90;;;;;;5026894;28;20174;-76
2021/01/12 06:42:26;;;;;;;0.30;0.30;;;-7.40;99.90;;;;;;5028189;28;20715;-76
2021/01/12 06:44:56;;;;;;;0.30;0.30;;;-7.40;99.90;;;;;;5029091;28;20162;-76
2021/01/12 06:47:29;;;;;;;0.82;0.82;;;-7.50;99.90;;;;;;5027653;28;20201;-75
2021/01/12 06:50:18;;;;;;;0.95;0.95;;;-7.50;99.90;;;;;;5028509;28;20151;-76
2021/01/12 06:52:46;;;;;;;0.57;0.57;;;-7.50;99.90;;;;;;5027594;28;20189;-76
2021/01/12 06:55:14;;;;;;;0.30;0.30;;;-7.50;99.90;;;;;;5027646;28;20180;-76
2021/01/12 06:57:44;;;;;;;0.22;0.22;;;-7.50;99.90;;;;;;5027455;28;20261;-76
2021/01/12 07:00:13;;;;;;;0.30;0.30;;;-7.50;99.90;;;;;;5028648;28;20162;-76
2021/01/12 07:02:39;;;;;;;0.57;0.57;;;-7.50;99.90;;;;;;5028738;28;20189;-75
2021/01/12 07:05:16;;;;;;;0.30;0.30;;;-7.40;99.90;;;;;;5028748;28;20166;-77
2021/01/12 07:07:49;;;;;;;0.45;0.45;;;-7.50;99.90;;;;;;5026881;28;20221;-77
2021/01/12 07:10:21;;;;;;;1.15;1.15;;;-7.50;99.90;;;;;;5028687;28;20154;-77
2021/01/12 07:12:48;;;;;;;1.67;1.63;;;-7.40;99.90;;;;;;5026997;28;20208;-76
2021/01/12 07:15:22;;;;;;;0.17;0.17;;;-7.40;99.90;;;;;;5027298;28;20181;-76
2021/01/12 07:17:53;;;;;;;0.30;0.30;;;-7.40;99.90;;;;;;5028505;28;20645;-76
2021/01/12 07:20:19;;;;;;;0.50;0.50;;;-7.40;99.90;;;;;;5028546;28;20168;-75
2021/01/12 07:23:02;;;;;;;0.77;0.77;;;-7.30;99.90;;;;;;5029987;28;20226;-76
2021/01/12 07:25:37;;;;;;;0.22;0.22;;;-7.20;99.90;;;;;;5028884;28;20174;-76
2021/01/12 07:28:09;;;;;;;0.90;0.90;;;-7.10;99.90;;;;;;5027162;28;20201;-76
2021/01/12 07:30:39;;;;;;;0.40;0.40;;;-7.00;99.90;;;;;;5043228;28;20166;-77
2021/01/12 07:33:07;;;;;;;0.22;0.22;;;-6.90;99.90;;;;;;5027473;28;20705;-76
2021/01/12 07:35:36;;;;;;;0.22;0.22;;;-6.90;99.90;;;;;;5026895;28;20173;-77
2021/01/12 07:38:03;;;;;;;0.30;0.30;;;-6.80;99.90;;;;;;5043307;28;20265;-77
2021/01/12 07:40:30;;;;;;;0.82;0.82;;;-6.80;99.90;;;;;;5027962;28;20154;-77
2021/01/12 07:42:59;;;;;;;0.70;0.70;;;-6.70;99.90;;;;;;5027989;28;20189;-76
2021/01/12 07:45:35;;;;;;;0.30;0.30;;;-6.70;99.90;;;;;;5026407;28;20699;-77
2021/01/12 07:48:03;;;;;;;0.35;0.35;;;-6.70;99.90;;;;;;5026403;28;20173;-76
2021/01/12 07:50:31;;;;;;;0.20;0.20;;;-6.60;99.90;;;;;;5026349;28;20163;-76
2021/01/12 07:52:58;;;;;;;0.40;0.40;;;-6.40;99.90;;;;;;5026545;28;20654;-76
2021/01/12 07:55:24;;;;;;;1.40;1.40;;;-6.30;99.90;;;;;;5042794;28;20166;-79
2021/01/12 07:57:51;;;;;;;0.20;0.20;;;-6.00;99.90;;;;;;5027622;28;20165;-76
2021/01/12 08:00:18;;;;;;;0.20;0.20;;;-5.90;99.90;;;;;;5025517;28;20189;-76
2021/01/12 08:02:48;;;;;;;0.90;0.90;;;-5.80;99.90;;;;;;5027702;28;20200;-76
2021/01/12 08:05:17;;;;;;;1.75;1.65;;;-5.60;99.90;;;;;;5027780;28;20172;-76
2021/01/12 08:07:43;;;;;;;0.10;0.10;;;-5.30;99.90;;;;;;5026368;28;20172;-76
2021/01/12 08:10:10;;;;;;;0.50;0.50;;;-5.20;99.90;;;;;;5026377;28;20170;-77
2021/01/12 08:12:38;;;;;;;1.48;1.38;;;-4.80;99.90;;;;;;5026351;28;20213;-77
2021/01/12 08:15:13;;;;;;;0.22;0.22;;;-4.20;99.90;;;;;;5027774;28;20307;-76
2021/01/12 08:17:49;;;;;;;0.40;0.40;;;-3.90;99.90;;;;;;5026363;28;20227;-78
2021/01/12 08:20:17;;;;;;;0.30;0.30;;;-3.70;99.90;;;;;;5027768;28;20189;-76
2021/01/12 08:22:53;;;;;;;0.20;0.20;;;-3.70;99.90;;;;;;5026253;28;20216;-73
2021/01/12 08:25:20;;;;;;;0.28;0.28;;;-2.90;99.90;;;;;;5033342;28;20200;-74
2021/01/12 08:27:56;;;;;;;0.40;0.40;;;-1.90;99.90;;;;;;5041688;28;20185;-73
2021/01/12 08:30:24;;;;;;;0.65;0.65;;;-1.60;99.90;;;;;;5022913;28;20178;-72
2021/01/12 08:32:57;;;;;;;0.30;0.30;;;-2.10;99.90;;;;;;5029656;28;20279;-73
2021/01/12 08:35:27;;;;;;;0.50;0.50;;;-2.30;99.90;;;;;;5032840;28;20182;-74
2021/01/12 08:37:57;;;;;;;1.23;1.20;;;-2.10;99.90;;;;;;5042507;28;20162;-74
2021/01/12 08:40:26;;;;;;;0.20;0.20;;;-1.90;99.90;;;;;;5027022;28;20158;-72
2021/01/12 08:42:53;;;;;;;0.28;0.28;;;-2.00;99.90;;;;;;5025769;28;20316;-72
2021/01/12 08:45:19;;;;;;;0.10;0.10;;;-2.40;99.90;;;;;;5027539;28;20170;-72
2021/01/12 08:47:45;;;;;;;0.20;0.20;;;-2.70;99.90;;;;;;5025920;28;20174;-73
2021/01/12 08:50:15;;;;;;;5.43;1.23;;;-2.80;99.90;;;;;;5027324;28;20207;-72
2021/01/12 08:52:49;;;;;;;0.28;0.28;;;-2.70;99.90;;;;;;5027105;28;20336;-72
2021/01/12 08:55:18;;;;;;;4.15;1.17;;;-2.50;99.90;;;;;;5027384;28;20158;-75
2021/01/12 08:58:04;;;;;;;0.20;0.20;;;-2.40;99.90;;;;;;5042331;28;20238;-73
2021/01/12 09:00:31;;;;;;;0.20;0.20;;;-2.50;99.90;;;;;;5025824;28;20198;-74
2021/01/12 09:02:58;;;;;;;0.82;0.82;;;-2.70;99.90;;;;;;5027529;28;20181;-73
2021/01/12 09:05:26;;;;;;;0.40;0.40;;;-2.80;99.90;;;;;;5025989;28;20174;-73
2021/01/12 09:07:59;;;;;;;0.22;0.22;;;-2.70;99.90;;;;;;5025999;28;20211;-73
2021/01/12 09:10:29;;;;;;;0.35;0.35;;;-2.70;99.90;;;;;;5027261;28;20190;-74
2021/01/12 09:12:55;;;;;;;0.70;0.70;;;-2.70;99.90;;;;;;5028846;28;20254;-74
2021/01/12 09:15:33;;;;;;;0.43;0.43;;;-2.50;99.90;;;;;;5029629;28;20184;-74
2021/01/12 09:18:13;;;;;;;0.77;0.77;;;-2.00;99.90;;;;;;5030242;28;20234;-74
2021/01/12 09:20:39;;;;;;;3.70;1.00;;;-1.30;99.90;;;;;;5029651;28;20166;-73
2021/01/12 09:23:07;;;;;;;0.60;0.60;;;-0.20;99.90;;;;;;5030857;28;20178;-73
2021/01/12 09:25:34;;;;;;;0.30;0.30;;;0.40;99.90;;;;;;5029100;28;20176;-74
2021/01/12 09:28:35;;;;;;;0.50;0.50;;;1.60;99.90;;;;;;5030666;28;20158;-73
2021/01/12 09:31:07;;;;;;;0.17;0.17;;;1.90;99.90;;;;;;4989191;28;20223;-74
2021/01/12 09:33:35;;;;;;;0.85;0.85;;;1.70;99.90;;;;;;4989397;28;20163;-73
2021/01/12 09:36:13;;;;;;;0.43;0.43;;;1.20;99.90;;;;;;4989125;28;20250;-73
2021/01/12 09:38:47;;;;;;;0.20;0.20;;;0.10;99.90;;;;;;4989300;28;20213;-73
2021/01/12 09:41:15;;;;;;;0.20;0.20;;;-0.30;99.90;;;;;;4989099;28;20285;-73
2021/01/12 09:43:43;;;;;;;0.30;0.30;;;-0.30;99.90;;;;;;4973437;28;20191;-72
2021/01/12 09:46:10;;;;;;;1.05;1.05;;;-0.50;99.90;;;;;;4969787;29;20168;-72
2021/01/12 09:48:36;;;;;;;0.13;0.13;;;-0.40;99.90;;;;;;4953522;29;20561;-72
2021/01/12 09:51:03;;;;;;;0.22;0.22;;;-0.40;99.90;;;;;;4969721;29;20192;-73
2021/01/12 09:53:28;;;;;;;0.77;0.77;;;-0.50;99.90;;;;;;4953517;29;20176;-73
2021/01/12 09:55:54;;;;;;;2.92;2.03;;;-0.70;99.90;;;;;;4969757;29;20258;-73
2021/01/12 09:58:20;;;;;;;1.17;1.17;;;-0.60;99.90;;;;;;4953271;29;20199;-73
2021/01/12 10:00:46;;;;;;;0.30;0.30;;;-0.50;99.90;;;;;;4969439;29;20180;-73
2021/01/12 10:03:12;;;;;;;1.42;1.33;;;-0.50;99.90;;;;;;4953353;29;20248;-73
2021/01/12 10:05:38;;;;;;;0.20;0.20;;;-0.30;99.90;;;;;;4969311;29;20171;-73
2021/01/12 10:08:04;;;;;;;0.17;0.17;;;0.10;99.90;;;;;;4987078;28;20333;-73
2021/01/12 10:10:31;;;;;;;0.63;0.63;;;0.30;99.90;;;;;;4990509;28;20187;-73
2021/01/12 10:12:57;;;;;;;0.65;0.65;;;0.00;99.90;;;;;;4990858;28;20163;-73
2021/01/12 10:15:23;;;;;;;1.48;1.45;;;0.20;99.90;;;;;;4990381;28;20198;-74
2021/01/12 10:17:49;;;;;;;0.68;0.68;;;0.20;99.90;;;;;;4987955;28;20254;-73
2021/01/12 10:20:14;;;;;;;0.38;0.38;;;-0.10;99.90;;;;;;4989815;28;20263;-73
2021/01/12 10:22:40;;;;;;;0.30;0.30;;;-0.10;99.90;;;;;;4988325;28;20171;-73
2021/01/12 10:25:06;;;;;;;1.65;1.55;;;0.20;99.90;;;;;;4989924;28;20183;-73
2021/01/12 10:27:41;;;;;;;0.40;0.40;;;0.80;99.90;;;;;;4990562;28;20194;-73
2021/01/12 10:30:09;;;;;;;0.45;0.45;;;2.10;99.90;;;;;;4989227;28;20386;-73
2021/01/12 10:32:35;;;;;;;0.52;0.52;;;2.50;99.90;;;;;;5005215;28;20206;-73
2021/01/12 10:35:03;;;;;;;0.28;0.28;;;2.20;99.90;;;;;;4989118;28;20203;-73
2021/01/12 10:37:28;;;;;;;0.15;0.15;;;2.70;99.90;;;;;;4990535;28;20244;-73
2021/01/12 10:39:55;;;;;;;0.95;0.95;;;4.30;99.90;;;;;;4990196;28;20203;-73
2021/01/12 10:42:22;;;;;;;0.20;0.20;;;5.90;99.90;;;;;;5018285;28;20233;-72
2021/01/12 10:44:47;;;;;;;0.30;0.30;;;5.20;99.90;;;;;;5029440;28;20261;-73
2021/01/12 10:47:13;;;;;;;0.65;0.65;;;4.00;99.90;;;;;;5028610;28;20312;-73
2021/01/12 10:49:39;;;;;;;0.20;0.20;;;3.00;99.90;;;;;;5028965;28;20169;-73
2021/01/12 10:52:06;;;;;;;0.28;0.28;;;2.30;99.90;;;;;;5028986;28;20186;-73
2021/01/12 10:54:32;;;;;;;0.35;0.35;;;1.90;99.90;;;;;;5027736;28;20166;-73
2021/01/12 10:56:58;;;;;;;1.02;1.02;;;1.40;99.90;;;;;;5027810;28;20229;-73
2021/01/12 10:59:27;;;;;;;0.93;0.93;;;1.10;99.90;;;;;;5029169;28;20165;-73
2021/01/12 11:01:57;;;;;;;1.13;0.73;;;0.80;99.90;;;;;;5029042;28;20182;-73
2021/01/12 11:04:23;;;;;;;0.57;0.57;;;0.30;99.90;;;;;;5029071;28;20166;-73
2021/01/12 11:06:51;;;;;;;0.75;0.75;;;0.30;99.90;;;;;;5027442;28;20229;-73
2021/01/12 11:09:20;;;;;;;0.28;0.28;;;0.30;99.90;;;;;;5029014;28;20162;-73
2021/01/12 11:11:48;;;;;;;0.25;0.25;;;0.10;99.90;;;;;;5028950;28;20225;-73
2021/01/12 11:14:23;;;;;;;0.30;0.30;;;0.20;99.90;;;;;;5027480;28;20320;-73
2021/01/12 11:16:50;;;;;;;0.50;0.50;;;-0.20;99.90;;;;;;5028666;28;20189;-73
2021/01/12 11:19:17;;;;;;;0.22;0.22;;;-0.10;99.90;;;;;;5028587;28;20159;-73
2021/01/12 11:21:47;;;;;;;0.73;0.73;;;0.00;99.90;;;;;;5027321;28;20166;-73
2021/01/12 11:24:16;;;;;;;1.33;1.27;;;0.00;99.90;;;;;;5028366;28;20579;-73
2021/01/12 11:26:43;;;;;;;0.20;0.20;;;-0.10;99.90;;;;;;5028509;28;20665;-73
2021/01/12 11:29:11;;;;;;;1.42;1.33;;;0.10;99.90;;;;;;5028503;28;20167;-73
2021/01/12 11:31:39;;;;;;;0.30;0.30;;;0.20;99.90;;;;;;5026856;28;20228;-73
2021/01/12 11:34:05;;;;;;;0.43;0.43;;;0.20;99.90;;;;;;5028199;28;20150;-73
2021/01/12 11:36:35;;;;;;;0.93;0.93;;;-0.10;99.90;;;;;;5028212;28;20212;-73
2021/01/12 11:39:02;;;;;;;0.47;0.47;;;-0.10;99.90;;;;;;5028378;28;20155;-73
2021/01/12 11:41:28;;;;;;;0.38;0.38;;;-0.10;99.90;;;;;;5027871;28;20225;-73
2021/01/12 11:43:54;;;;;;;0.82;0.82;;;-0.20;99.90;;;;;;5028144;28;20201;-73
2021/01/12 11:46:27;;;;;;;0.47;0.47;;;-0.10;99.90;;;;;;5027488;28;20213;-73
2021/01/12 11:48:54;;;;;;;0.38;0.38;;;0.00;99.90;;;;;;5027886;28;20178;-74
2021/01/12 11:51:20;;;;;;;2.97;2.17;;;0.00;99.90;;;;;;5027936;28;20190;-74
2021/01/12 11:53:46;;;;;;;1.02;1.02;;;-0.20;99.90;;;;;;5026674;28;20649;-74
2021/01/12 11:56:12;;;;;;;2.28;1.02;;;-0.10;99.90;;;;;;5026229;28;20762;-74
2021/01/12 11:58:38;;;;;;;1.38;1.35;;;0.00;99.90;;;;;;5008458;28;20169;-74
2021/01/12 12:01:03;;;;;;;0.20;0.20;;;0.00;99.90;;;;;;5007035;28;20225;-74
2021/01/12 12:03:29;;;;;;;0.20;0.20;;;-0.20;99.90;;;;;;5008400;28;20325;-74
2021/01/12 12:05:55;;;;;;;0.32;0.32;;;-0.20;99.90;;;;;;5008199;28;20194;-74
2021/01/12 12:08:20;;;;;;;1.50;1.00;;;-0.20;99.90;;;;;;5007155;28;20190;-74
2021/01/12 12:10:46;;;;;;;1.52;1.45;;;0.00;99.90;;;;;;5007141;28;20179;-75
2021/01/12 12:13:12;;;;;;;1.00;1.00;;;0.10;99.90;;;;;;5007275;28;20216;-72
2021/01/12 12:15:38;;;;;;;0.35;0.35;;;0.20;99.90;;;;;;5008284;28;20155;-74
2021/01/12 12:18:04;;;;;;;0.30;0.30;;;0.50;99.90;;;;;;5008344;28;20151;-74
2021/01/12 12:20:30;;;;;;;1.00;1.00;;;0.80;99.90;;;;;;5008489;28;20166;-74
2021/01/12 12:22:56;;;;;;;0.40;0.40;;;0.80;99.90;;;;;;5026608;28;20177;-74
2021/01/12 12:25:22;;;;;;;0.25;0.25;;;1.10;99.90;;;;;;5027767;28;20172;-73
2021/01/12 12:27:48;;;;;;;1.63;1.52;;;1.40;99.90;;;;;;5025098;28;20269;-73
2021/01/12 12:30:14;;;;;;;1.23;1.15;;;1.70;99.90;;;;;;5027930;28;20221;-74
2021/01/12 12:32:40;;;;;;;1.00;1.00;;;1.50;99.90;;;;;;5027556;28;20182;-73
2021/01/12 12:35:06;;;;;;;0.88;0.88;;;1.70;99.90;;;;;;5026055;28;20591;-73
2021/01/12 12:37:32;;;;;;;1.30;1.30;;;2.00;99.90;;;;;;5026200;28;20193;-73
2021/01/12 12:39:58;;;;;;;0.40;0.40;;;1.80;99.90;;;;;;5026103;28;20201;-74
2021/01/12 12:42:23;;;;;;;0.22;0.22;;;1.40;99.90;;;;;;5027572;28;20221;-73
2021/01/12 12:44:49;;;;;;;0.10;0.10;;;1.20;99.90;;;;;;5027521;28;20193;-74
2021/01/12 12:47:16;;;;;;;1.15;1.15;;;1.10;99.90;;;;;;5029395;28;20236;-73
2021/01/12 12:49:42;;;;;;;0.60;0.60;;;0.90;99.90;;;;;;5031391;28;20158;-73
2021/01/12 12:52:08;;;;;;;0.20;0.20;;;0.80;99.90;;;;;;5030863;28;20255;-72
2021/01/12 12:54:34;;;;;;;1.25;1.23;;;0.70;99.90;;;;;;5031559;28;20173;-73